Time;durP1;ratioP1;P1;durP2;ratioP2;P2;SDS_P1;SDS_P2;PMS_P1;PMS_P2;Temp;Humidity;BMP_temperature;BMP_pressure;BME280_temperature;BME280_humidity;BME280_pressure;Samples;Min_cycle;Max_cycle;Signal;HPM_P1;HPM_P2
2022/08/11 00:01:05;;;;;;;6.40;3.50;;;;;;;13.24;75.68;101392.94;89118;1264;96615;-58
2022/08/11 00:03:18;;;;;;;4.70;3.80;;;;;;;13.25;75.79;101394.22;89164;1263;88876;-61
2022/08/11 00:05:27;;;;;;;7.30;4.10;;;;;;;13.26;75.78;101388.89;89123;1263;93818;-61
2022/08/11 00:07:44;;;;;;;6.40;4.30;;;;;;;13.25;75.74;101392.83;89192;1264;81555;-59
2022/08/11 00:09:57;;;;;;;7.20;4.70;;;;;;;13.22;75.88;101390.48;89193;1262;81544;-59
2022/08/11 00:12:15;;;;;;;7.90;3.90;;;;;;;13.19;75.82;101390.47;89121;1263;97114;-59
2022/08/11 00:14:29;;;;;;;6.90;4.30;;;;;;;13.17;75.91;101390.90;89147;1263;85084;-61
2022/08/11 00:16:40;;;;;;;;;;;;;;;13.16;75.90;101391.80;89084;1264;95347;-61
2022/08/11 00:18:53;;;;;;;6.30;4.20;;;;;;;13.15;75.87;101389.86;89112;1264;80943;-61
2022/08/11 00:21:03;;;;;;;5.10;3.70;;;;;;;13.14;75.89;101395.94;89119;1263;81600;-58
2022/08/11 00:23:17;;;;;;;5.90;3.90;;;;;;;13.12;76.01;101393.14;89146;1263;98302;-62
2022/08/11 00:25:27;;;;;;;5.20;4.00;;;;;;;13.12;76.01;101393.22;89145;1263;87840;-60
2022/08/11 00:27:41;;;;;;;5.50;4.30;;;;;;;13.08;76.10;101393.63;89157;1262;94454;-58
2022/08/11 00:30:07;;;;;;;6.60;4.10;;;;;;;13.05;76.00;101394.52;89096;1264;77639;-59
2022/08/11 00:32:19;;;;;;;7.90;3.90;;;;;;;13.00;75.95;101392.02;89089;1263;82574;-59
2022/08/11 00:34:34;;;;;;;6.20;3.80;;;;;;;12.96;75.90;101393.13;89112;1264;98909;-59
2022/08/11 00:36:54;;;;;;;6.20;4.50;;;;;;;12.91;75.94;101391.98;89065;1264;87798;-59
2022/08/11 00:39:11;;;;;;;8.50;4.30;;;;;;;12.85;76.06;101388.16;89078;1264;93984;-61
2022/08/11 00:41:39;;;;;;;5.40;3.60;;;;;;;12.81;76.04;101389.02;89063;1264;80193;-61
2022/08/11 00:44:31;;;;;;;5.80;3.70;;;;;;;12.77;76.18;101389.13;89125;1264;81106;-61
2022/08/11 00:46:55;;;;;;;4.60;3.30;;;;;;;12.73;76.23;101386.88;89084;1264;97501;-61
2022/08/11 00:49:42;;;;;;;5.70;3.50;;;;;;;12.71;76.32;101394.34;89133;1264;88631;-60
2022/08/11 00:52:09;;;;;;;6.10;3.60;;;;;;;12.69;76.44;101397.64;89046;1264;94562;-62
2022/08/11 00:54:48;;;;;;;5.20;3.80;;;;;;;12.69;76.52;101399.10;89147;1264;81502;-62
2022/08/11 00:57:39;;;;;;;7.40;3.70;;;;;;;12.67;76.45;101396.06;89104;1264;82251;-61
2022/08/11 01:00:14;;;;;;;6.70;4.40;;;;;;;12.73;76.48;101392.54;89186;1264;97828;-60
2022/08/11 01:02:45;;;;;;;9.90;4.10;;;;;;;12.74;76.57;101393.72;89186;1264;88303;-61
2022/08/11 01:05:40;;;;;;;7.70;4.20;;;;;;;12.74;76.46;101392.98;89176;1263;94819;-60
2022/08/11 01:08:38;;;;;;;5.50;3.70;;;;;;;12.64;76.61;101392.12;88922;1264;82474;-61
2022/08/11 01:11:16;;;;;;;5.50;3.90;;;;;;;12.57;76.66;101395.85;88980;1264;81929;-61
2022/08/11 01:14:04;;;;;;;5.90;3.50;;;;;;;12.50;76.68;101397.45;89154;1264;97941;-63
2022/08/11 01:16:56;;;;;;;6.70;4.10;;;;;;;12.44;76.81;101392.59;89087;1264;88210;-61
2022/08/11 01:20:17;;;;;;;7.30;3.90;;;;;;;12.42;76.80;101394.21;89043;1264;94715;-61
2022/08/11 01:23:14;;;;;;;5.00;3.90;;;;;;;12.42;76.86;101395.21;88805;1268;81401;-61
2022/08/11 01:26:29;;;;;;;5.40;3.70;;;;;;;12.40;76.88;101395.80;88776;1270;82544;-61
2022/08/11 01:29:40;;;;;;;4.50;3.70;;;;;;;12.39;76.93;101396.95;89028;1267;98545;-61
2022/08/11 01:32:52;;;;;;;9.00;4.40;;;;;;;12.39;77.08;101398.77;89113;1262;88602;-61
2022/08/11 01:35:50;;;;;;;6.40;4.20;;;;;;;12.40;77.05;101393.30;89142;1263;95340;-60
2022/08/11 01:38:38;;;;;;;9.00;3.90;;;;;;;12.36;77.07;101393.52;88986;1264;81114;-61
2022/08/11 01:44:36;;;;;;;6.90;3.70;;;;;;;12.33;77.10;101395.48;89186;1263;82147;-61
2022/08/11 01:44:37;;;;;;;6.90;3.90;;;;;;;12.32;77.16;101395.34;89110;1262;96916;-62
2022/08/11 01:46:54;;;;;;;6.60;3.40;;;;;;;12.30;77.14;101395.48;89118;1263;87274;-60
2022/08/11 01:49:27;;;;;;;7.10;3.80;;;;;;;12.31;77.18;101393.11;89082;1263;94373;-61
2022/08/11 01:52:00;;;;;;;5.40;4.10;;;;;;;12.32;77.23;101393.88;89158;1263;79511;-62
2022/08/11 01:54:21;;;;;;;6.40;4.00;;;;;;;12.32;77.27;101395.51;89091;1263;82206;-60
2022/08/11 01:56:47;;;;;;;7.10;4.50;;;;;;;12.29;77.27;101391.08;89102;1263;98735;-59
2022/08/11 01:59:14;;;;;;;9.20;5.50;;;;;;;12.24;77.40;101390.42;89130;1263;88262;-61
2022/08/11 02:01:52;;;;;;;7.00;3.30;;;;;;;12.20;77.33;101391.66;89052;1264;95153;-61
2022/08/11 02:04:33;;;;;;;7.90;4.10;;;;;;;12.16;77.35;101392.08;89015;1263;82297;-59
2022/08/11 02:06:56;;;;;;;6.70;3.80;;;;;;;12.15;77.42;101392.42;89054;1263;81545;-59
2022/08/11 02:09:14;;;;;;;5.80;3.60;;;;;;;12.13;77.55;101391.41;89068;1263;96940;-61
2022/08/11 02:11:32;;;;;;;4.80;3.70;;;;;;;12.11;77.52;101391.93;89046;1257;88686;-61
2022/08/11 02:14:00;;;;;;;8.50;4.20;;;;;;;12.12;77.62;101390.78;89063;1263;93661;-62
2022/08/11 02:16:22;;;;;;;9.40;4.60;;;;;;;12.12;77.61;101392.92;89023;1263;79465;-61
2022/08/11 02:23:54;;;;;;;5.30;3.70;;;;;;;12.04;77.61;101399.33;89101;1263;88648;-61
2022/08/11 02:26:10;;;;;;;6.50;3.60;;;;;;;12.01;77.59;101400.88;89097;1263;94465;-61
2022/08/11 02:28:35;;;;;;;6.20;3.40;;;;;;;12.00;77.63;101400.84;89059;1263;81492;-62
2022/08/11 02:33:35;;;;;;;6.30;3.60;;;;;;;11.96;77.69;101405.44;89049;1264;98061;-61
2022/08/11 02:36:00;;;;;;;5.00;3.70;;;;;;;11.93;77.82;101406.38;89095;1264;88838;-61
2022/08/11 02:38:23;;;;;;;7.70;3.80;;;;;;;11.90;77.82;101408.52;89077;1264;93973;-62
2022/08/11 02:40:44;;;;;;;5.00;3.80;;;;;;;11.89;77.91;101410.73;89076;1264;79118;-60
2022/08/11 02:43:09;;;;;;;7.90;4.10;;;;;;;11.92;77.92;101409.36;89083;1264;82408;-60
2022/08/11 02:45:37;;;;;;;5.70;3.60;;;;;;;11.89;77.84;101403.04;89069;1263;99015;-60
2022/08/11 02:50:31;;;;;;;5.50;3.10;;;;;;;11.82;77.94;101406.01;89007;1264;95080;-61
2022/08/11 02:52:58;;;;;;;6.20;3.50;;;;;;;11.80;77.81;101403.60;89000;1264;79981;-59
2022/08/11 02:55:23;;;;;;;4.90;3.60;;;;;;;11.81;77.89;101407.16;89044;1264;82491;-59
2022/08/11 02:57:40;;;;;;;6.50;3.20;;;;;;;11.81;77.96;101406.00;89035;1264;97665;-60
2022/08/11 02:59:55;;;;;;;4.90;3.40;;;;;;;11.81;77.96;101402.75;89382;1255;87625;-57
2022/08/11 03:02:22;;;;;;;5.00;3.30;;;;;;;11.81;78.03;101404.79;90956;1260;94073;-58
2022/08/11 03:04:47;;;;;;;8.00;3.80;;;;;;;11.81;78.06;101408.58;90943;1260;79171;-60
2022/08/11 03:07:18;;;;;;;8.50;3.30;;;;;;;11.81;78.02;101408.21;90948;1260;82882;-60
2022/08/11 03:09:42;;;;;;;11.90;4.00;;;;;;;11.81;77.98;101408.06;90950;1260;96939;-60
2022/08/11 03:17:38;;;;;;;7.40;3.90;;;;;;;11.80;78.10;101412.48;90917;1260;80417;-61
2022/08/11 03:20:02;;;;;;;5.60;3.40;;;;;;;11.81;78.13;101410.70;90983;1260;81627;-61
2022/08/11 03:22:23;;;;;;;10.20;4.20;;;;;;;11.85;78.07;101409.08;90960;1260;96600;-61
2022/08/11 03:24:56;;;;;;;7.60;3.50;;;;;;;11.88;78.13;101414.08;90977;1260;87400;-60
2022/08/11 03:27:24;;;;;;;9.90;3.20;;;;;;;11.92;78.20;101413.11;90932;1260;94392;-60
2022/08/11 03:29:40;;;;;;;6.80;3.60;;;;;;;11.94;78.26;101413.45;90879;1260;78491;-60
2022/08/11 03:32:01;;;;;;;6.70;3.20;;;;;;;11.90;78.14;101417.69;90940;1260;82541;-60
2022/08/11 03:34:17;;;;;;;7.00;3.50;;;;;;;11.90;78.07;101422.70;90928;1260;96579;-60
2022/08/11 03:37:06;;;;;;;8.00;3.60;;;;;;;11.94;78.08;101419.41;90961;1260;87016;-58
2022/08/11 03:39:28;;;;;;;6.70;3.40;;;;;;;11.98;78.20;101421.42;90932;1260;95612;-60
2022/08/11 03:41:43;;;;;;;7.00;3.30;;;;;;;12.00;78.23;101423.08;90914;1260;79848;-58
2022/08/11 03:44:14;;;;;;;7.20;3.10;;;;;;;12.07;78.15;101426.08;90945;1260;82449;-58
2022/08/11 03:46:46;;;;;;;8.30;3.60;;;;;;;12.11;78.21;101428.06;89916;1260;1320822;-61
2022/08/11 03:49:15;;;;;;;7.90;3.70;;;;;;;12.14;78.15;101426.11;90936;1260;88329;-61
2022/08/11 03:51:31;;;;;;;5.70;3.90;;;;;;;12.15;78.24;101424.39;90910;1260;94711;-62
2022/08/11 03:54:16;;;;;;;9.80;3.70;;;;;;;12.17;78.33;101424.15;90678;1263;81158;-61
2022/08/11 03:57:19;;;;;;;7.20;3.10;;;;;;;12.25;78.31;101425.60;90947;1260;82871;-61
2022/08/11 04:00:09;;;;;;;10.00;3.50;;;;;;;13.07;78.31;101423.95;90963;1260;98513;-61
2022/08/11 04:03:01;;;;;;;9.40;4.60;;;;;;;14.59;77.62;101419.28;90953;1260;88620;-61
2022/08/11 04:06:32;;;;;;;8.90;3.60;;;;;;;15.39;76.44;101420.13;90896;1260;94579;-59
2022/08/11 04:09:22;;;;;;;10.70;3.80;;;;;;;16.24;75.76;101414.38;90387;1265;79534;-59
2022/08/11 04:12:35;;;;;;;8.90;3.50;;;;;;;17.59;74.53;101415.58;90400;1265;82915;-61
2022/08/11 04:19:01;;;;;;;18.30;4.30;;;;;;;16.67;73.50;101419.66;90403;1265;88305;-61
2022/08/11 04:21:58;;;;;;;14.10;4.70;;;;;;;16.09;73.62;101417.94;90022;1272;95348;-62
2022/08/11 04:24:54;;;;;;;23.10;6.40;;;;;;;15.90;73.28;101423.24;90031;1272;79158;-61
2022/08/11 04:27:45;;;;;;;34.80;6.50;;;;;;;15.78;73.50;101429.79;90048;1271;82053;-61
2022/08/11 04:30:13;;;;;;;40.30;9.00;;;;;;;15.71;73.52;101427.05;89845;1276;98139;-61
2022/08/11 04:33:03;;;;;;;32.20;7.60;;;;;;;15.71;73.65;101424.27;89826;1276;87667;-61
2022/08/11 04:35:34;;;;;;;32.10;6.60;;;;;;;15.75;73.68;101426.52;89825;1276;94545;-61
2022/08/11 04:38:47;;;;;;;37.30;7.30;;;;;;;15.82;73.78;101424.16;89829;1276;81540;-61
2022/08/11 04:45:09;;;;;;;45.50;7.90;;;;;;;16.24;73.74;101418.94;89846;1276;97917;-61
2022/08/11 05:03:16;;;;;;;21.40;5.90;;;;;;;26.70;60.81;101408.70;90432;1267;88925;-62
2022/08/11 05:05:49;;;;;;;35.90;7.50;;;;;;;27.69;58.55;101414.98;90422;1267;92937;-62
2022/08/11 05:08:50;;;;;;;24.40;6.60;;;;;;;28.34;56.28;101412.91;90392;1267;77413;-62
2022/08/11 05:11:48;;;;;;;23.00;5.50;;;;;;;29.11;54.16;101407.84;90417;1267;82653;-60
2022/08/11 05:35:16;;;;;;;8.50;5.40;;;;;;;31.94;42.04;101401.81;90779;1261;79030;-62
2022/08/11 05:37:38;;;;;;;7.90;5.80;;;;;;;32.12;41.38;101403.63;90860;1262;82106;-62
2022/08/11 05:57:36;;;;;;;10.10;6.90;;;;;;;35.26;35.73;101395.02;90761;1261;95382;-60
2022/08/11 05:59:47;;;;;;;15.60;7.60;;;;;;;35.42;34.80;101393.52;90762;1261;78686;-61
2022/08/11 06:02:07;;;;;;;9.20;5.70;;;;;;;35.36;35.26;101396.77;90971;1260;81868;-62
2022/08/11 06:04:24;;;;;;;20.20;8.10;;;;;;;35.43;35.28;101393.95;90958;1260;96584;-62
2022/08/11 06:06:35;;;;;;;15.30;8.70;;;;;;;35.39;35.45;101395.70;90928;1260;88322;-61
2022/08/11 06:08:56;;;;;;;12.70;5.60;;;;;;;35.32;35.20;101391.11;90947;1260;93774;-61
2022/08/11 06:11:07;;;;;;;23.40;8.40;;;;;;;35.49;34.83;101393.84;90898;1260;80287;-61
2022/08/11 06:13:22;;;;;;;17.90;6.20;;;;;;;35.29;34.49;101394.91;90943;1260;82886;-62
2022/08/11 06:15:34;;;;;;;11.50;5.70;;;;;;;35.09;34.53;101397.88;90954;1260;99280;-62
2022/08/11 06:17:50;;;;;;;19.80;6.10;;;;;;;35.35;34.24;101396.07;90941;1260;89678;-62
2022/08/11 06:20:08;;;;;;;28.50;7.10;;;;;;;35.65;33.91;101398.23;90909;1260;95408;-61
2022/08/11 06:22:26;;;;;;;22.10;5.90;;;;;;;36.03;33.50;101400.88;90910;1260;80040;-61
2022/08/11 06:24:51;;;;;;;12.10;3.60;;;;;;;36.20;33.32;101401.20;90952;1260;81198;-61
2022/08/11 06:27:06;;;;;;;4.40;2.40;;;;;;;36.27;32.57;101399.02;90913;1260;99278;-61
2022/08/11 06:29:17;;;;;;;4.00;2.40;;;;;;;36.25;32.33;101399.26;90939;1260;87333;-61
2022/08/11 06:31:28;;;;;;;3.70;2.10;;;;;;;36.42;32.24;101394.65;90917;1260;94778;-62
2022/08/11 06:33:53;;;;;;;3.10;2.10;;;;;;;36.49;32.17;101394.77;90885;1260;79802;-62
2022/08/11 06:36:14;;;;;;;5.70;2.00;;;;;;;36.64;31.66;101397.20;90940;1260;82088;-62
2022/08/11 06:38:57;;;;;;;7.60;2.30;;;;;;;36.71;31.65;101398.16;90956;1260;98478;-62
2022/08/11 06:41:31;;;;;;;4.00;2.00;;;;;;;36.86;31.07;101394.02;90922;1260;89031;-62
2022/08/11 06:43:58;;;;;;;6.00;2.30;;;;;;;37.13;30.96;101398.70;90921;1260;92870;-61
2022/08/11 06:46:15;;;;;;;6.10;2.00;;;;;;;37.33;30.78;101403.29;90897;1260;79096;-62
2022/08/11 06:48:27;;;;;;;2.70;1.80;;;;;;;37.28;30.54;101404.92;90915;1260;81921;-62
2022/08/11 06:53:11;;;;;;;4.40;2.00;;;;;;;37.80;29.85;101399.41;90947;1260;88187;-62
2022/08/11 07:00:33;;;;;;;6.60;3.00;;;;;;;38.49;28.49;101388.30;90942;1260;82840;-60
2022/08/11 07:02:59;;;;;;;7.00;4.40;;;;;;;38.23;28.64;101382.08;90929;1260;97412;-60
2022/08/11 07:05:20;;;;;;;5.30;3.40;;;;;;;38.15;28.24;101374.39;90943;1260;88742;-62
2022/08/11 07:16:33;;;;;;;3.60;1.70;;;;;;;37.75;27.73;101372.95;90940;1260;98572;-62
2022/08/11 07:28:59;;;;;;;7.60;2.20;;;;;;;38.64;26.52;101374.27;90897;1260;97950;-61
2022/08/11 07:31:12;;;;;;;;;;;;;;;38.63;26.63;101371.48;90948;1260;87471;-60
2022/08/11 07:33:32;;;;;;;4.10;1.60;;;;;;;38.74;26.68;101375.40;90939;1260;95811;-60
2022/08/11 07:35:52;;;;;;;9.90;2.20;;;;;;;38.52;26.43;101379.20;90921;1260;80560;-63
2022/08/11 07:38:08;;;;;;;5.70;2.40;;;;;;;38.04;26.56;101377.38;90904;1260;83033;-62
2022/08/11 07:40:24;;;;;;;8.30;1.80;;;;;;;37.53;26.96;101374.56;90942;1260;96329;-62
2022/08/11 07:42:45;;;;;;;4.40;2.10;;;;;;;37.35;27.02;101372.89;90978;1260;87826;-62
2022/08/11 07:52:39;;;;;;;4.30;1.70;;;;;;;37.69;27.25;101377.00;90895;1260;98457;-62
2022/08/11 07:54:50;;;;;;;10.00;2.60;;;;;;;37.75;26.68;101377.06;90934;1260;87880;-65
2022/08/11 08:19:36;;;;;;;14.30;3.10;;;;;;;36.71;26.43;101371.66;90771;1262;86634;-61
2022/08/11 08:21:48;;;;;;;17.20;3.80;;;;;;;36.46;26.95;101371.84;90752;1262;94101;-60
2022/08/11 08:24:02;;;;;;;10.60;2.30;;;;;;;36.17;27.24;101370.81;90757;1261;80069;-61
2022/08/11 08:28:45;;;;;;;7.10;2.40;;;;;;;35.97;27.44;101367.70;90800;1262;99122;-61
2022/08/11 08:30:56;;;;;;;5.50;2.00;;;;;;;36.29;27.43;101366.83;90806;1262;86463;-58
2022/08/11 08:33:07;;;;;;;6.40;2.40;;;;;;;36.17;27.46;101367.88;90765;1262;93026;-58
2022/08/11 08:35:16;;;;;;;;;;;;;;;36.29;27.66;101367.59;90754;1262;78325;-61
2022/08/11 08:37:28;;;;;;;22.50;5.60;;;;;;;36.43;27.43;101368.88;90795;1262;81564;-61
2022/08/11 08:39:38;;;;;;;13.60;3.20;;;;;;;36.80;27.07;101363.96;90807;1262;98202;-58
2022/08/11 08:41:49;;;;;;;3.60;1.90;;;;;;;36.53;26.89;101361.89;90800;1262;88583;-57
2022/08/11 08:44:07;;;;;;;3.60;1.70;;;;;;;35.93;26.78;101359.80;90738;1261;93829;-58
2022/08/11 08:46:19;;;;;;;6.10;1.80;;;;;;;35.69;27.25;101358.77;90776;1262;78519;-62
2022/08/11 08:48:31;;;;;;;4.40;1.80;;;;;;;35.67;27.48;101353.85;90806;1261;80933;-62
2022/08/11 08:53:33;;;;;;;12.10;3.30;;;;;;;36.16;27.24;101353.58;90791;1262;88716;-61
2022/08/11 08:55:49;;;;;;;4.50;1.80;;;;;;;35.48;27.18;101356.60;90736;1262;93807;-60
2022/08/11 08:58:00;;;;;;;5.10;1.70;;;;;;;34.69;27.49;101357.40;90758;1262;79025;-60
2022/08/11 09:00:18;;;;;;;3.60;1.60;;;;;;;34.54;27.59;101356.91;90866;1261;82976;-60
2022/08/11 09:02:33;;;;;;;2.70;1.50;;;;;;;34.34;27.99;101352.82;90954;1261;98327;-61
2022/08/11 09:04:47;;;;;;;19.60;3.80;;;;;;;34.26;27.70;101360.59;90950;1261;87711;-61
2022/08/11 09:07:02;;;;;;;14.10;3.30;;;;;;;34.16;27.39;101360.20;90936;1260;94854;-62
2022/08/11 09:09:13;;;;;;;25.40;4.50;;;;;;;34.13;28.00;101358.15;90879;1260;78708;-60
2022/08/11 09:13:54;;;;;;;6.60;1.80;;;;;;;34.53;28.41;101348.58;90908;1261;97746;-60
2022/08/11 09:16:09;;;;;;;11.10;3.00;;;;;;;34.67;28.81;101350.85;90929;1261;88423;-61
2022/08/11 09:18:22;;;;;;;10.50;3.40;;;;;;;34.28;28.16;101351.84;90906;1260;94694;-63
2022/08/11 09:20:37;;;;;;;10.40;2.80;;;;;;;33.73;28.36;101351.86;90908;1260;79214;-59
2022/08/11 09:27:58;;;;;;;8.30;2.40;;;;;;;32.40;30.23;101355.73;90993;1260;88537;-61
2022/08/11 09:30:11;;;;;;;4.50;1.50;;;;;;;32.19;30.31;101353.37;90927;1261;95112;-64
2022/08/11 09:32:32;;;;;;;5.90;2.10;;;;;;;31.97;30.72;101352.13;90914;1261;78681;-63
2022/08/11 09:34:44;;;;;;;32.40;7.20;;;;;;;31.66;30.90;101346.80;90958;1261;81789;-61
2022/08/11 09:41:49;;;;;;;2.70;1.40;;;;;;;30.67;32.53;101336.85;90698;1263;94140;-61
2022/08/11 09:46:33;;;;;;;5.40;1.20;;;;;;;30.00;32.63;101338.58;90955;1260;80537;-58
2022/08/11 09:48:58;;;;;;;3.30;1.70;;;;;;;30.03;32.98;101337.52;90947;1260;98006;-59
2022/08/11 09:51:10;;;;;;;4.90;1.40;;;;;;;30.05;32.75;101337.11;90941;1260;88081;-60
2022/08/11 09:53:27;;;;;;;3.90;1.60;;;;;;;29.93;32.69;101332.23;90899;1261;93316;-62
2022/08/11 09:55:39;;;;;;;5.90;2.00;;;;;;;29.88;33.16;101330.12;90905;1260;80085;-61
2022/08/11 10:00:31;;;;;;;13.50;2.90;;;;;;;29.51;33.21;101335.75;90908;1260;98261;-58
2022/08/11 10:02:49;;;;;;;32.20;5.30;;;;;;;29.21;33.27;101333.20;90922;1260;87169;-58
2022/08/11 10:07:27;;;;;;;14.30;2.60;;;;;;;28.44;34.02;101331.59;90681;1263;78211;-57
2022/08/11 10:10:01;;;;;;;19.80;3.00;;;;;;;28.35;34.30;101328.52;90656;1263;82665;-58
2022/08/11 10:12:24;;;;;;;13.40;2.60;;;;;;;28.61;34.51;101325.40;90954;1260;97968;-58
2022/08/11 10:17:18;;;;;;;18.60;3.00;;;;;;;28.45;34.55;101316.67;90934;1260;93761;-59
2022/08/11 10:19:28;;;;;;;10.00;1.90;;;;;;;28.42;34.35;101312.37;90885;1261;79469;-59
2022/08/11 10:26:48;;;;;;;9.00;1.60;;;;;;;28.59;34.21;101314.11;90695;1263;82147;-58
2022/08/11 10:26:57;;;;;;;8.50;2.20;;;;;;;28.65;34.36;101302.23;90944;1260;88446;-58
2022/08/11 10:34:56;;;;;;;14.20;2.90;;;;;;;28.68;34.29;101293.44;90521;1265;82389;-59
2022/08/11 10:37:10;;;;;;;7.10;1.40;;;;;;;28.73;34.19;101284.41;90387;1266;98182;-58
2022/08/11 10:39:23;;;;;;;4.30;1.40;;;;;;;28.89;34.15;101287.69;90457;1267;88930;-58
2022/08/11 10:44:09;;;;;;;4.30;1.10;;;;;;;28.55;34.15;101281.77;90477;1265;79360;-59
2022/08/11 10:48:51;;;;;;;2.10;1.00;;;;;;;28.09;34.32;101277.82;90491;1265;96320;-58
2022/08/11 10:51:14;;;;;;;3.30;0.80;;;;;;;27.78;34.67;101279.02;90489;1264;88099;-57
2022/08/11 11:00:50;;;;;;;2.60;0.90;;;;;;;28.60;35.00;101260.95;90470;1265;97414;-59
2022/08/11 11:03:02;;;;;;;3.10;1.10;;;;;;;28.66;34.24;101265.54;90475;1265;88687;-59
2022/08/11 11:05:29;;;;;;;3.40;1.10;;;;;;;28.71;33.84;101269.11;90473;1265;95141;-59
2022/08/11 11:08:02;;;;;;;3.60;1.10;;;;;;;28.60;33.79;101254.83;90449;1265;79242;-59
2022/08/11 11:10:14;;;;;;;1.50;0.90;;;;;;;28.56;33.75;101251.11;90470;1265;82160;-63
2022/08/11 11:18:00;;;;;;;6.40;3.10;;;;;;;27.56;34.69;101246.20;90466;1265;94702;-63
2022/08/11 11:20:15;;;;;;;6.60;2.10;;;;;;;27.30;35.06;101243.49;90463;1265;78779;-63
2022/08/11 11:22:46;;;;;;;7.50;2.10;;;;;;;27.14;35.23;101238.68;90417;1267;81751;-63
2022/08/11 11:25:15;;;;;;;5.30;1.50;;;;;;;27.06;35.48;101240.02;90485;1264;98131;-61
2022/08/11 11:27:33;;;;;;;9.00;3.10;;;;;;;27.09;35.71;101233.70;90480;1265;87772;-62
2022/08/11 11:30:04;;;;;;;4.70;2.00;;;;;;;27.10;35.73;101231.76;90461;1265;94174;-64
2022/08/11 11:32:30;;;;;;;5.50;2.50;;;;;;;27.23;36.13;101233.41;90439;1265;80562;-64
2022/08/11 11:35:14;;;;;;;3.50;1.40;;;;;;;27.20;36.53;101233.73;90501;1265;81826;-64
2022/08/11 11:37:25;;;;;;;2.10;1.10;;;;;;;27.03;36.72;101232.37;90460;1265;97465;-62
2022/08/11 11:39:40;;;;;;;1.30;0.90;;;;;;;26.91;36.55;101234.03;90468;1265;87321;-63
2022/08/11 11:41:51;;;;;;;4.70;1.00;;;;;;;26.76;36.62;101227.73;90456;1265;93696;-63
2022/08/11 11:44:03;;;;;;;3.40;1.10;;;;;;;26.70;36.99;101225.45;90484;1264;78116;-60
2022/08/11 11:46:19;;;;;;;2.30;0.80;;;;;;;26.68;37.01;101223.29;90148;1265;466854;-59
2022/08/11 11:48:31;;;;;;;2.30;1.10;;;;;;;26.72;37.27;101219.63;90488;1265;98789;-59
2022/08/11 11:50:44;;;;;;;3.30;1.10;;;;;;;26.59;37.82;101218.39;90504;1265;88614;-61
2022/08/11 11:52:55;;;;;;;7.00;1.50;;;;;;;26.56;37.94;101214.28;90468;1265;93884;-62
2022/08/11 11:55:09;;;;;;;4.40;1.00;;;;;;;26.49;38.15;101212.02;90460;1265;79698;-62
2022/08/11 12:02:27;;;;;;;8.90;1.70;;;;;;;27.39;37.32;101206.73;90490;1265;87674;-60
2022/08/11 12:04:42;;;;;;;3.60;1.50;;;;;;;27.37;37.08;101203.30;90452;1264;94412;-64
2022/08/11 12:08:08;;;;;;;2.40;1.00;;;;;;;27.41;36.80;101196.20;90470;1265;79628;-61
2022/08/11 12:09:27;;;;;;;3.40;0.90;;;;;;;27.45;36.84;101191.94;90419;1267;81755;-63
2022/08/11 12:14:09;;;;;;;3.50;1.30;;;;;;;27.57;36.54;101185.89;90405;1267;87684;-61
2022/08/11 12:16:22;;;;;;;6.40;2.20;;;;;;;27.65;36.56;101181.08;90461;1265;94609;-61
2022/08/11 12:18:37;;;;;;;5.10;2.20;;;;;;;27.65;36.31;101183.42;90458;1264;79931;-61
2022/08/11 12:20:47;;;;;;;4.80;1.30;;;;;;;27.58;36.49;101182.78;90496;1265;82181;-61
2022/08/11 12:27:57;;;;;;;5.10;1.30;;;;;;;27.51;35.34;101173.15;90466;1265;95144;-62
2022/08/11 12:30:08;;;;;;;7.70;1.40;;;;;;;27.43;35.40;101171.44;90448;1265;80291;-64
2022/08/11 12:32:18;;;;;;;3.60;1.30;;;;;;;27.39;35.45;101171.38;90501;1265;81399;-63
2022/08/11 12:34:34;;;;;;;2.40;0.90;;;;;;;27.20;35.39;101176.59;90489;1265;98874;-62
2022/08/11 12:36:49;;;;;;;3.40;0.70;;;;;;;27.18;35.57;101175.48;90466;1265;88078;-61
2022/08/11 12:39:16;;;;;;;3.90;1.20;;;;;;;27.14;35.61;101168.55;90466;1264;94192;-62
2022/08/11 12:46:36;;;;;;;5.40;1.20;;;;;;;27.30;35.19;101159.02;90511;1265;98218;-63
2022/08/11 12:53:58;;;;;;;4.20;1.10;;;;;;;27.48;35.19;101150.45;90453;1265;80384;-60
2022/08/11 12:58:41;;;;;;;4.50;2.30;;;;;;;27.27;35.42;101160.59;90493;1265;97333;-59
2022/08/11 13:05:58;;;;;;;1.80;0.90;;;;;;;26.73;35.23;101161.58;90446;1264;78219;-63
2022/08/11 13:08:10;;;;;;;2.20;1.10;;;;;;;26.82;35.14;101160.16;90505;1265;82758;-61
2022/08/11 13:12:50;;;;;;;2.00;1.00;;;;;;;26.85;35.20;101154.33;90372;1267;87226;-60
2022/08/11 13:15:03;;;;;;;1.10;0.80;;;;;;;27.09;35.41;101148.86;90471;1265;94886;-61
2022/08/11 13:17:25;;;;;;;2.30;1.10;;;;;;;27.22;35.36;101143.40;90462;1265;79770;-60
2022/08/11 13:19:38;;;;;;;3.60;0.90;;;;;;;27.36;35.33;101141.83;90531;1265;80021;-62
2022/08/11 13:21:50;;;;;;;1.80;0.90;;;;;;;27.52;35.14;101137.34;90491;1265;97955;-63
2022/08/11 13:24:06;;;;;;;6.10;1.20;;;;;;;27.62;35.17;101135.90;90494;1265;86182;-63
2022/08/11 13:26:17;;;;;;;11.20;1.70;;;;;;;27.60;35.40;101146.20;90461;1265;92670;-63
2022/08/11 13:28:28;;;;;;;10.70;1.50;;;;;;;27.32;34.73;101151.08;90463;1265;80354;-60
2022/08/11 13:33:15;;;;;;;4.10;1.30;;;;;;;26.66;35.05;101154.36;90480;1265;97680;-58
2022/08/11 13:35:33;;;;;;;8.30;2.00;;;;;;;26.51;35.26;101155.58;90492;1265;88718;-58
2022/08/11 13:37:49;;;;;;;4.90;0.80;;;;;;;26.28;35.27;101155.23;90462;1266;95055;-60
2022/08/11 13:40:05;;;;;;;5.30;0.90;;;;;;;26.05;35.40;101151.06;90475;1264;79349;-61
2022/08/11 13:42:19;;;;;;;5.50;1.00;;;;;;;25.98;35.68;101151.09;90495;1265;80276;-61
2022/08/11 13:44:42;;;;;;;3.50;0.90;;;;;;;25.99;35.82;101152.42;90373;1266;97772;-63
2022/08/11 13:46:56;;;;;;;3.60;1.10;;;;;;;26.15;35.84;101148.93;90490;1265;86962;-62
2022/08/11 13:49:11;;;;;;;2.70;1.00;;;;;;;26.35;36.04;101149.48;90464;1265;93125;-62
2022/08/11 13:51:33;;;;;;;2.80;0.90;;;;;;;26.50;35.83;101142.17;90431;1265;79354;-63
2022/08/11 13:53:49;;;;;;;2.20;0.80;;;;;;;26.48;35.67;101139.95;90512;1265;81400;-59
2022/08/11 13:55:59;;;;;;;4.90;0.90;;;;;;;26.51;35.82;101139.45;90402;1266;97958;-60
2022/08/11 13:58:13;;;;;;;3.40;1.00;;;;;;;26.65;35.71;101139.07;90515;1265;88348;-62
2022/08/11 14:00:24;;;;;;;2.60;0.80;;;;;;;26.73;35.74;101138.79;90442;1264;93172;-62
2022/08/11 14:02:44;;;;;;;2.30;0.90;;;;;;;26.87;35.67;101134.77;90465;1265;79697;-61
2022/08/11 14:04:59;;;;;;;3.40;0.90;;;;;;;27.05;35.82;101126.62;90488;1265;82624;-62
2022/08/11 14:07:14;;;;;;;4.00;1.30;;;;;;;27.18;35.68;101123.83;90450;1265;98414;-62
2022/08/11 14:09:28;;;;;;;5.10;1.20;;;;;;;27.24;35.31;101126.02;90459;1265;89045;-61
2022/08/11 14:14:13;;;;;;;5.10;0.80;;;;;;;26.97;34.53;101143.50;90440;1265;80771;-61
2022/08/11 14:16:37;;;;;;;1.70;0.90;;;;;;;26.72;34.28;101140.11;90508;1265;81408;-64
2022/08/11 14:18:52;;;;;;;1.80;0.90;;;;;;;26.67;34.46;101147.55;90497;1265;97713;-63
2022/08/11 14:23:41;;;;;;;1.40;0.80;;;;;;;26.66;34.44;101147.16;90460;1265;95567;-64
2022/08/11 14:28:29;;;;;;;4.60;0.90;;;;;;;26.78;34.43;101148.95;90490;1265;81957;-64
2022/08/11 14:30:56;;;;;;;4.00;0.90;;;;;;;26.78;34.23;101150.39;90448;1264;97632;-65
2022/08/11 14:33:06;;;;;;;2.40;0.80;;;;;;;26.77;34.33;101150.44;90470;1265;88859;-65
2022/08/11 14:35:17;;;;;;;2.10;1.20;;;;;;;26.79;34.55;101144.85;90454;1264;94607;-65
2022/08/11 14:37:30;;;;;;;1.40;0.90;;;;;;;26.74;34.49;101145.61;90427;1265;80508;-65
2022/08/11 14:39:49;;;;;;;2.30;0.90;;;;;;;26.70;34.50;101142.39;90474;1265;82756;-64
2022/08/11 14:47:15;;;;;;;4.60;0.90;;;;;;;26.48;35.98;101155.02;90416;1265;93910;-64
2022/08/11 14:49:27;;;;;;;3.20;1.00;;;;;;;26.41;36.13;101152.02;90422;1266;78849;-65
2022/08/11 14:51:39;;;;;;;1.80;0.90;;;;;;;26.33;36.45;101150.52;90473;1265;80221;-64
2022/08/11 14:56:34;;;;;;;3.30;1.00;;;;;;;26.29;36.84;101148.14;90440;1265;98752;-62
2022/08/11 14:56:39;;;;;;;3.30;0.90;;;;;;;26.18;36.89;101148.84;90441;1265;87423;-62
2022/08/11 14:58:49;;;;;;;1.30;0.70;;;;;;;25.95;37.26;101149.48;90442;1265;94818;-63
2022/08/11 15:03:05;;;;;;;3.10;1.00;;;;;;;25.77;37.83;101147.92;90448;1265;79885;-63